createdAt,value
2022-09-01T00:00:38.247Z,22.08
2022-09-01T00:02:39.685Z,22.05
2022-09-01T00:04:41.078Z,22.01
2022-09-01T00:06:44.196Z,21.99
2022-09-01T00:08:45.490Z,21.97
2022-09-01T00:10:47.135Z,21.97
2022-09-01T00:12:48.469Z,21.95
2022-09-01T00:14:49.786Z,21.91
2022-09-01T00:16:51.871Z,21.89
2022-09-01T00:18:53.224Z,21.87
2022-09-01T00:20:59.156Z,21.86
2022-09-01T00:23:00.777Z,21.84
2022-09-01T00:25:02.199Z,21.80
2022-09-01T00:27:03.537Z,21.80
2022-09-01T00:29:04.898Z,21.77
2022-09-01T00:31:06.472Z,21.78
2022-09-01T00:33:08.271Z,21.76
2022-09-01T00:35:09.966Z,21.75
2022-09-01T00:37:11.282Z,21.77
2022-09-01T00:39:12.590Z,21.74
2022-09-01T00:41:13.902Z,21.74
2022-09-01T00:43:15.264Z,21.74
2022-09-01T00:45:16.649Z,21.73
2022-09-01T00:47:19.311Z,21.71
2022-09-01T00:49:20.685Z,21.72
2022-09-01T00:51:21.994Z,21.77
2022-09-01T00:53:23.316Z,21.75
2022-09-01T00:55:24.620Z,21.73
2022-09-01T00:57:25.923Z,21.71
2022-09-01T00:59:27.456Z,21.71
2022-09-01T01:01:28.918Z,21.71
2022-09-01T01:03:33.995Z,21.70
2022-09-01T01:05:36.495Z,21.67
2022-09-01T01:07:41.628Z,21.67
2022-09-01T01:09:47.391Z,21.67
2022-09-01T01:11:48.800Z,21.66
2022-09-01T01:13:51.080Z,21.65
2022-09-01T01:15:52.396Z,21.65
2022-09-01T01:17:53.710Z,21.65
2022-09-01T01:20:13.712Z,21.65
2022-09-01T01:22:33.631Z,21.65
2022-09-01T01:24:34.943Z,21.62
2022-09-01T01:26:37.206Z,21.61
2022-09-01T01:28:39.158Z,21.61
2022-09-01T01:30:40.514Z,21.61
2022-09-01T01:32:43.193Z,21.60
2022-09-01T01:34:46.883Z,21.59
2022-09-01T01:36:50.630Z,21.60
2022-09-01T01:38:52.529Z,21.62
2022-09-01T01:40:54.527Z,21.63
2022-09-01T01:42:57.283Z,21.64
2022-09-01T01:44:58.654Z,21.62
2022-09-01T01:46:59.962Z,21.61
2022-09-01T01:49:04.498Z,21.60
2022-09-01T01:51:05.863Z,21.59
2022-09-01T01:53:11.183Z,21.59
2022-09-01T01:55:13.059Z,21.61
2022-09-01T01:57:17.320Z,21.60
2022-09-01T01:59:19.619Z,21.58
2022-09-01T02:01:22.149Z,21.54
2022-09-01T02:03:25.040Z,21.54
2022-09-01T02:05:26.354Z,21.54
2022-09-01T02:07:27.674Z,21.55
2022-09-01T02:09:34.283Z,21.53
2022-09-01T02:11:37.862Z,21.51
2022-09-01T02:13:39.807Z,21.49
2022-09-01T02:15:44.587Z,21.49
2022-09-01T02:17:47.072Z,21.52
2022-09-01T02:19:48.461Z,21.54
2022-09-01T02:21:54.347Z,21.55
2022-09-01T02:24:01.061Z,21.58
2022-09-01T02:26:16.077Z,21.58
2022-09-01T02:28:20.172Z,21.60
2022-09-01T02:30:22.317Z,21.60
2022-09-01T02:32:23.703Z,21.58
2022-09-01T02:34:25.999Z,21.57
2022-09-01T02:36:28.068Z,21.57
2022-09-01T02:38:29.728Z,21.57
2022-09-01T02:40:31.528Z,21.57
2022-09-01T02:42:32.899Z,21.52
2022-09-01T02:44:36.242Z,21.51
2022-09-01T02:46:42.005Z,21.51
2022-09-01T02:48:43.497Z,21.49
2022-09-01T02:50:44.904Z,21.50
2022-09-01T02:52:48.562Z,21.49
2022-09-01T02:54:50.722Z,21.50
2022-09-01T02:56:54.471Z,21.50
2022-09-01T02:58:55.822Z,21.50
2022-09-01T03:00:57.211Z,21.52
2022-09-01T03:02:58.915Z,21.51
2022-09-01T03:05:00.335Z,21.52
2022-09-01T03:07:01.935Z,21.53
2022-09-01T03:09:03.281Z,21.49
2022-09-01T03:11:12.675Z,21.49
2022-09-01T03:13:14.539Z,21.47
2022-09-01T03:15:15.847Z,21.46
2022-09-01T03:17:17.179Z,21.47
2022-09-01T03:19:19.190Z,21.46
2022-09-01T03:21:20.543Z,21.45
2022-09-01T03:23:21.881Z,21.44
2022-09-01T03:25:25.128Z,21.45
2022-09-01T03:27:26.448Z,21.48
2022-09-01T03:29:27.777Z,21.48
2022-09-01T03:31:31.122Z,21.44
2022-09-01T03:33:32.992Z,21.41
2022-09-01T03:35:34.295Z,21.40
2022-09-01T03:37:37.199Z,21.40
2022-09-01T03:39:38.543Z,21.39
2022-09-01T03:41:39.863Z,21.40
2022-09-01T03:43:46.926Z,21.40
2022-09-01T03:45:48.713Z,21.38
2022-09-01T03:47:50.132Z,21.36
2022-09-01T03:49:51.788Z,21.38
2022-09-01T03:51:53.954Z,21.37
2022-09-01T03:53:55.507Z,21.39
2022-09-01T03:56:00.197Z,21.37
2022-09-01T03:58:03.280Z,21.37
2022-09-01T04:00:04.718Z,21.36
2022-09-01T04:02:06.407Z,21.35
2022-09-01T04:04:07.895Z,21.34
2022-09-01T04:06:09.250Z,21.32
2022-09-01T04:08:11.499Z,21.30
2022-09-01T04:10:12.836Z,21.31
2022-09-01T04:12:15.804Z,21.33
2022-09-01T04:14:17.232Z,21.30
2022-09-01T04:16:38.541Z,21.30
2022-09-01T04:18:40.120Z,21.29
2022-09-01T04:20:50.867Z,21.35
2022-09-01T04:22:52.772Z,21.41
2022-09-01T04:24:54.159Z,21.39
2022-09-01T04:26:55.720Z,21.38
2022-09-01T04:28:57.269Z,21.37
2022-09-01T04:30:58.751Z,21.39
2022-09-01T04:33:00.114Z,21.36
2022-09-01T04:35:02.165Z,21.35
2022-09-01T04:37:03.675Z,21.36
2022-09-01T04:39:08.840Z,21.35
2022-09-01T04:41:17.624Z,21.35
2022-09-01T04:43:18.995Z,21.34
2022-09-01T04:45:22.369Z,21.33
2022-09-01T04:47:31.742Z,21.33
2022-09-01T04:49:37.637Z,21.40
2022-09-01T04:51:39.007Z,21.40
2022-09-01T04:53:40.879Z,21.38
2022-09-01T04:55:45.131Z,21.37
2022-09-01T04:57:47.318Z,21.37
2022-09-01T04:59:48.643Z,21.35
2022-09-01T05:01:50.919Z,21.34
2022-09-01T05:04:01.566Z,19.54
2022-09-01T05:06:05.383Z,21.33
2022-09-01T05:08:06.925Z,21.33
2022-09-01T05:10:08.315Z,21.33
2022-09-01T05:12:12.802Z,21.32
2022-09-01T05:14:20.598Z,21.30
2022-09-01T05:16:25.505Z,21.30
2022-09-01T05:18:28.145Z,21.33
2022-09-01T05:20:30.189Z,21.35
2022-09-01T05:22:31.536Z,21.34
2022-09-01T05:24:39.849Z,21.36
2022-09-01T05:26:44.240Z,21.35
2022-09-01T05:28:45.579Z,21.35
2022-09-01T05:30:46.943Z,21.38
2022-09-01T05:32:49.197Z,21.39
2022-09-01T05:34:51.847Z,21.39
2022-09-01T05:36:53.210Z,21.38
2022-09-01T05:38:54.754Z,21.38
2022-09-01T05:40:56.175Z,21.36
2022-09-01T05:42:58.010Z,21.35
2022-09-01T05:45:00.193Z,21.35
2022-09-01T05:47:03.243Z,21.35
2022-09-01T05:49:07.010Z,21.34
2022-09-01T05:51:22.223Z,21.35
2022-09-01T05:53:31.067Z,21.36
2022-09-01T05:55:37.658Z,21.36
2022-09-01T05:57:39.932Z,21.40
2022-09-01T05:59:41.461Z,21.42
2022-09-01T06:01:46.876Z,21.50
2022-09-01T06:03:54.883Z,21.50
2022-09-01T06:05:58.688Z,21.42
2022-09-01T06:08:00.007Z,21.39
2022-09-01T06:10:01.344Z,21.37
2022-09-01T06:12:02.815Z,21.36
2022-09-01T06:14:04.476Z,21.37
2022-09-01T06:16:05.881Z,21.49
2022-09-01T06:18:07.288Z,21.47
2022-09-01T06:20:10.676Z,21.39
2022-09-01T06:22:12.311Z,21.45
2022-09-01T06:24:13.894Z,21.36
2022-09-01T06:26:15.215Z,21.26
2022-09-01T06:28:16.579Z,21.41
2022-09-01T06:30:23.859Z,21.36
2022-09-01T06:32:27.088Z,21.26
2022-09-01T06:34:29.605Z,21.20
2022-09-01T06:36:35.145Z,21.14
2022-09-01T06:38:37.655Z,21.13
2022-09-01T06:40:40.991Z,21.09
2022-09-01T06:42:43.420Z,21.08
2022-09-01T06:44:46.057Z,21.08
2022-09-01T06:46:47.680Z,21.06
2022-09-01T06:48:49.107Z,21.06
2022-09-01T06:53:32.568Z,21.03
2022-09-01T06:55:34.713Z,21.01
2022-09-01T06:59:59.490Z,20.99
2022-09-01T07:04:23.202Z,20.95
2022-09-01T07:11:23.061Z,20.95
2022-09-01T07:13:39.680Z,20.94
2022-09-01T07:18:22.473Z,20.93
2022-09-01T07:20:24.549Z,20.93
2022-09-01T07:27:09.546Z,20.91
2022-09-01T07:29:12.277Z,20.90
2022-09-01T07:33:44.453Z,20.88
2022-09-01T07:42:57.802Z,21.00
2022-09-01T07:43:06.686Z,20.85
2022-09-01T07:52:15.555Z,20.83
2022-09-01T07:54:25.234Z,20.82
2022-09-01T07:56:26.680Z,20.81
2022-09-01T07:58:28.717Z,20.81
2022-09-01T08:00:31.755Z,20.81
2022-09-01T08:02:33.349Z,20.80
2022-09-01T08:04:34.756Z,20.79
2022-09-01T08:06:39.280Z,20.79
2022-09-01T08:08:42.233Z,20.78
2022-09-01T08:10:44.536Z,20.79
2022-09-01T08:12:45.875Z,20.79
2022-09-01T08:14:47.503Z,20.79
2022-09-01T08:19:17.806Z,20.72
2022-09-01T08:21:19.819Z,20.47
2022-09-01T08:23:36.187Z,20.53
2022-09-01T08:25:37.866Z,21.05
2022-09-01T08:27:39.267Z,21.51
2022-09-01T08:29:40.653Z,21.69
2022-09-01T08:31:42.199Z,21.73
2022-09-01T08:33:43.636Z,21.78
2022-09-01T08:35:44.994Z,21.97
2022-09-01T08:37:46.313Z,22.20
2022-09-01T08:39:48.829Z,21.84
2022-09-01T08:41:50.215Z,21.53
2022-09-01T08:43:51.596Z,21.47
2022-09-01T08:45:56.094Z,21.44
2022-09-01T08:48:28.994Z,21.43
2022-09-01T08:50:20.752Z,21.97
2022-09-01T08:52:22.229Z,22.27
2022-09-01T08:54:29.558Z,22.52
2022-09-01T08:56:36.107Z,22.68
2022-09-01T08:58:37.596Z,22.68
2022-09-01T09:00:39.534Z,22.78
2022-09-01T09:02:41.044Z,22.88
2022-09-01T09:04:42.452Z,22.94
2022-09-01T09:06:43.769Z,22.94
2022-09-01T09:08:45.144Z,22.88
2022-09-01T09:10:49.739Z,22.99
2022-09-01T09:12:52.835Z,23.09
2022-09-01T09:14:54.175Z,23.09
2022-09-01T09:16:56.051Z,22.98
2022-09-01T09:18:57.914Z,22.93
2022-09-01T09:20:59.288Z,23.01
2022-09-01T09:23:00.605Z,23.14
2022-09-01T09:25:01.945Z,23.31
2022-09-01T09:27:03.697Z,23.52
2022-09-01T09:29:05.536Z,23.40
2022-09-01T09:31:08.082Z,23.41
2022-09-01T09:33:49.795Z,23.51
2022-09-01T09:35:33.240Z,23.38
2022-09-01T09:37:34.899Z,23.31
2022-09-01T09:39:36.308Z,23.28
2022-09-01T09:41:37.778Z,23.23
2022-09-01T09:43:42.229Z,23.05
2022-09-01T09:45:46.017Z,22.77
2022-09-01T09:47:48.478Z,22.62
2022-09-01T09:49:49.921Z,22.52
2022-09-01T09:51:51.470Z,22.47
2022-09-01T09:53:52.842Z,22.45
2022-09-01T09:55:56.289Z,22.44
2022-09-01T09:57:57.874Z,22.41
2022-09-01T10:00:00.537Z,22.41
2022-09-01T10:02:02.830Z,22.40
2022-09-01T10:04:04.273Z,22.38
2022-09-01T10:06:05.745Z,22.37
2022-09-01T10:08:08.709Z,22.38
2022-09-01T10:10:10.048Z,22.38
2022-09-01T10:12:14.344Z,22.38
2022-09-01T10:14:23.595Z,22.40
2022-09-01T10:16:37.595Z,22.40
2022-09-01T10:18:39.094Z,22.44
2022-09-01T10:20:40.563Z,22.43
2022-09-01T10:22:42.040Z,22.33
2022-09-01T10:24:50.181Z,22.26
2022-09-01T10:26:52.089Z,22.19
2022-09-01T10:28:53.460Z,22.18
2022-09-01T10:30:54.886Z,22.14
2022-09-01T10:32:58.079Z,22.36
2022-09-01T10:35:03.077Z,22.62
2022-09-01T10:37:04.415Z,22.48
2022-09-01T10:39:11.772Z,22.37
2022-09-01T10:41:15.720Z,22.32
2022-09-01T10:43:17.585Z,22.29
2022-09-01T10:45:19.730Z,22.27
2022-09-01T10:47:21.219Z,22.23
2022-09-01T10:49:25.151Z,22.22
2022-09-01T10:51:36.255Z,22.18
2022-09-01T10:53:51.280Z,22.16
2022-09-01T10:55:58.304Z,22.15
2022-09-01T10:59:29.621Z,22.13
2022-09-01T11:00:37.483Z,22.09
2022-09-01T11:02:42.429Z,22.09
2022-09-01T11:04:48.323Z,22.09
2022-09-01T11:09:11.078Z,22.05
2022-09-01T11:11:12.421Z,22.03
2022-09-01T11:13:15.692Z,22.01
2022-09-01T11:15:17.175Z,22.00
2022-09-01T11:17:18.578Z,22.11
2022-09-01T11:19:21.792Z,22.05
2022-09-01T11:21:23.132Z,21.94
2022-09-01T11:23:24.950Z,21.89
2022-09-01T11:25:26.681Z,21.86
2022-09-01T11:27:39.673Z,21.81
2022-09-01T11:29:41.124Z,21.91
2022-09-01T11:31:42.567Z,22.10
2022-09-01T11:33:44.253Z,22.07
2022-09-01T11:35:45.605Z,21.96
2022-09-01T11:37:46.949Z,21.85
2022-09-01T11:39:48.289Z,21.78
2022-09-01T11:41:54.479Z,21.74
2022-09-01T11:43:58.267Z,21.70
2022-09-01T11:45:59.676Z,21.68
2022-09-01T11:48:01.065Z,21.65
2022-09-01T11:50:02.503Z,21.63
2022-09-01T11:52:03.844Z,21.61
2022-09-01T11:54:05.172Z,21.58
2022-09-01T11:56:08.052Z,21.55
2022-09-01T11:58:09.354Z,21.52
2022-09-01T12:00:10.676Z,21.50
2022-09-01T12:02:13.005Z,21.48
2022-09-01T12:04:14.452Z,21.47
2022-09-01T12:06:15.829Z,20.35
2022-09-01T12:08:23.943Z,21.44
2022-09-01T12:10:26.363Z,21.42
2022-09-01T12:12:27.668Z,21.41
2022-09-01T12:14:43.419Z,21.39
2022-09-01T12:16:50.375Z,21.39
2022-09-01T12:18:51.765Z,21.38
2022-09-01T12:20:53.504Z,21.39
2022-09-01T12:22:55.356Z,21.38
2022-09-01T12:24:56.732Z,21.37
2022-09-01T12:26:59.060Z,21.36
2022-09-01T12:29:00.408Z,21.35
2022-09-01T12:31:01.790Z,21.35
2022-09-01T12:35:24.591Z,21.36
2022-09-01T12:37:26.398Z,21.37
2022-09-01T12:39:28.143Z,21.41
2022-09-01T12:41:29.491Z,21.38
2022-09-01T12:43:30.916Z,21.36
2022-09-01T12:45:32.289Z,21.36
2022-09-01T12:47:33.641Z,21.33
2022-09-01T12:49:35.349Z,21.32
2022-09-01T12:51:37.441Z,21.30
2022-09-01T12:53:38.849Z,21.30
2022-09-01T12:55:47.841Z,21.29
2022-09-01T12:57:51.319Z,21.28
2022-09-01T12:59:52.706Z,21.26
2022-09-01T13:01:54.292Z,21.25
2022-09-01T13:03:55.711Z,21.24
2022-09-01T13:05:58.348Z,21.24
2022-09-01T13:07:59.792Z,21.22
2022-09-01T13:10:01.233Z,21.21
2022-09-01T13:12:06.774Z,21.20
2022-09-01T13:14:08.468Z,21.20
2022-09-01T13:16:13.850Z,21.18
2022-09-01T13:18:15.394Z,21.18
2022-09-01T13:20:16.724Z,21.17
2022-09-01T13:22:18.055Z,21.17
2022-09-01T13:24:19.439Z,21.15
2022-09-01T13:26:21.565Z,21.15
2022-09-01T13:30:31.242Z,21.14
2022-09-01T13:32:32.618Z,21.14
2022-09-01T13:34:34.138Z,21.13
2022-09-01T13:36:45.278Z,21.12
2022-09-01T13:38:50.559Z,21.12
2022-09-01T13:40:52.152Z,21.11
2022-09-01T13:42:53.518Z,21.11
2022-09-01T13:44:55.539Z,21.10
2022-09-01T13:47:00.551Z,21.10
2022-09-01T13:49:04.858Z,21.08
2022-09-01T13:51:25.104Z,21.08
2022-09-01T13:53:26.423Z,21.07
2022-09-01T13:55:27.773Z,21.07
2022-09-01T13:57:31.586Z,21.05
2022-09-01T13:59:37.814Z,21.05
2022-09-01T14:01:41.942Z,21.05
2022-09-01T14:03:44.010Z,21.05
2022-09-01T14:05:45.435Z,21.03
2022-09-01T14:07:48.988Z,21.03
2022-09-01T14:09:50.307Z,21.01
2022-09-01T14:11:51.641Z,21.01
2022-09-01T14:13:52.975Z,21.01
2022-09-01T14:15:54.476Z,21.00
2022-09-01T14:17:56.478Z,21.00
2022-09-01T14:19:57.799Z,20.99
2022-09-01T14:21:59.128Z,20.98
2022-09-01T14:24:01.030Z,20.98
2022-09-01T14:26:02.440Z,20.98
2022-09-01T14:28:03.970Z,20.97
2022-09-01T14:30:05.994Z,20.96
2022-09-01T14:32:07.960Z,20.96
2022-09-01T14:34:09.887Z,20.95
2022-09-01T14:36:15.002Z,20.96
2022-09-01T14:38:17.070Z,20.94
2022-09-01T14:40:18.494Z,20.94
2022-09-01T14:42:19.936Z,20.93
2022-09-01T14:44:21.252Z,19.95
2022-09-01T14:46:23.207Z,20.93
2022-09-01T14:48:24.667Z,20.92
2022-09-01T14:50:26.002Z,20.91
2022-09-01T14:52:27.438Z,20.90
2022-09-01T14:54:28.808Z,20.89
2022-09-01T14:56:30.181Z,20.89
2022-09-01T14:58:31.542Z,20.89
2022-09-01T15:00:35.142Z,20.89
2022-09-01T15:02:36.638Z,20.87
2022-09-01T15:04:38.075Z,20.87
2022-09-01T15:06:39.424Z,20.86
2022-09-01T15:08:40.742Z,20.87
2022-09-01T15:10:42.076Z,20.87
2022-09-01T15:12:43.593Z,20.85
2022-09-01T15:14:45.676Z,20.85
2022-09-01T15:16:47.678Z,20.84
2022-09-01T15:18:49.016Z,20.83
2022-09-01T15:20:51.271Z,20.84
2022-09-01T15:22:52.739Z,20.82
2022-09-01T15:24:54.062Z,20.82
2022-09-01T15:26:55.475Z,20.82
2022-09-01T15:28:59.635Z,20.81
2022-09-01T15:31:01.021Z,20.81
2022-09-01T15:33:02.448Z,20.80
2022-09-01T15:35:03.846Z,20.78
2022-09-01T15:37:05.199Z,20.79
2022-09-01T15:39:06.531Z,20.78
2022-09-01T15:41:07.913Z,20.78
2022-09-01T15:43:09.339Z,20.76
2022-09-01T15:45:10.676Z,20.76
2022-09-01T15:47:12.012Z,20.75
2022-09-01T15:49:13.420Z,20.76
2022-09-01T15:51:16.232Z,20.74
2022-09-01T15:53:18.959Z,20.74
2022-09-01T15:55:20.359Z,20.74
2022-09-01T15:57:21.749Z,20.73
2022-09-01T15:59:23.103Z,20.73
2022-09-01T16:01:24.514Z,20.73
2022-09-01T16:03:26.239Z,20.72
2022-09-01T16:05:27.573Z,20.71
2022-09-01T16:07:28.917Z,20.70
2022-09-01T16:09:30.462Z,20.71
2022-09-01T16:11:31.796Z,20.70
2022-09-01T16:13:33.159Z,20.69
2022-09-01T16:15:35.438Z,20.69
2022-09-01T16:17:37.779Z,20.67
2022-09-01T16:19:39.512Z,20.67
2022-09-01T16:21:40.932Z,20.66
2022-09-01T16:23:42.325Z,20.66
2022-09-01T16:25:43.672Z,20.65
2022-09-01T16:27:45.684Z,20.65
2022-09-01T16:29:47.453Z,20.64
2022-09-01T16:31:48.817Z,20.64
2022-09-01T16:33:50.813Z,20.63
2022-09-01T16:35:53.325Z,20.63
2022-09-01T16:37:54.647Z,20.62
2022-09-01T16:39:55.966Z,20.62
2022-09-01T16:41:58.674Z,20.61
2022-09-01T16:44:00.346Z,20.60
2022-09-01T16:46:01.663Z,20.61
2022-09-01T16:48:02.980Z,20.60
2022-09-01T16:50:06.260Z,20.60
2022-09-01T16:52:08.209Z,20.58
2022-09-01T16:54:10.279Z,20.57
2022-09-01T16:56:11.647Z,20.57
2022-09-01T16:58:12.981Z,20.56
2022-09-01T17:00:20.787Z,20.56
2022-09-01T17:02:23.094Z,20.55
2022-09-01T17:04:24.440Z,20.56
2022-09-01T17:06:26.274Z,20.54
2022-09-01T17:08:27.628Z,20.54
2022-09-01T17:10:28.943Z,20.53
2022-09-01T17:12:30.770Z,20.52
2022-09-01T17:14:32.098Z,20.51
2022-09-01T17:16:37.017Z,20.51
2022-09-01T17:18:38.576Z,20.50
2022-09-01T17:20:40.204Z,20.50
2022-09-01T17:22:41.520Z,20.49
2022-09-01T17:24:42.933Z,20.49
2022-09-01T17:26:50.657Z,20.49
2022-09-01T17:28:52.118Z,20.49
2022-09-01T17:30:53.515Z,20.47
2022-09-01T17:32:55.063Z,20.47
2022-09-01T17:34:56.362Z,20.47
2022-09-01T17:36:57.677Z,20.47
2022-09-01T17:39:01.117Z,20.46
2022-09-01T17:41:04.563Z,20.45
2022-09-01T17:43:06.224Z,20.45
2022-09-01T17:45:10.159Z,20.44
2022-09-01T17:47:12.681Z,20.43
2022-09-01T17:49:14.044Z,20.42
2022-09-01T17:51:15.398Z,20.42
2022-09-01T17:53:17.201Z,20.42
2022-09-01T17:55:18.575Z,20.41
2022-09-01T17:57:19.947Z,20.41
2022-09-01T17:59:22.429Z,20.40
2022-09-01T18:01:23.856Z,20.40
2022-09-01T18:03:26.192Z,20.40
2022-09-01T18:05:27.561Z,20.38
2022-09-01T18:07:28.882Z,20.38
2022-09-01T18:09:30.244Z,20.38
2022-09-01T18:11:31.764Z,20.38
2022-09-01T18:13:51.848Z,20.36
2022-09-01T18:15:58.433Z,20.37
2022-09-01T18:18:01.746Z,20.35
2022-09-01T18:20:03.095Z,20.35
2022-09-01T18:22:04.455Z,20.34
2022-09-01T18:24:05.798Z,20.33
2022-09-01T18:26:07.139Z,20.34
2022-09-01T18:28:10.324Z,20.33
2022-09-01T18:30:11.684Z,20.32
2022-09-01T18:32:13.087Z,20.32
2022-09-01T18:34:14.434Z,20.31
2022-09-01T18:36:15.819Z,20.31
2022-09-01T18:38:17.137Z,20.31
2022-09-01T18:40:18.553Z,20.31
2022-09-01T18:42:19.891Z,20.30
2022-09-01T18:44:21.407Z,20.31
2022-09-01T18:46:22.863Z,20.29
2022-09-01T18:48:24.292Z,20.29
2022-09-01T18:50:25.647Z,20.28
2022-09-01T18:52:27.435Z,20.28
2022-09-01T18:54:28.754Z,20.28
2022-09-01T18:56:32.356Z,20.26
2022-09-01T18:58:36.959Z,20.26
2022-09-01T19:00:38.275Z,20.26
2022-09-01T19:02:40.235Z,20.25
2022-09-01T19:04:42.315Z,20.25
2022-09-01T19:06:43.748Z,20.24
2022-09-01T19:08:45.092Z,20.23
2022-09-01T19:10:46.471Z,20.23
2022-09-01T19:12:47.831Z,20.22
2022-09-01T19:14:49.174Z,20.24
2022-09-01T19:16:52.270Z,20.22
2022-09-01T19:18:53.936Z,20.22
2022-09-01T19:20:55.325Z,20.22
2022-09-01T19:22:59.013Z,20.21
2022-09-01T19:25:20.300Z,20.21
2022-09-01T19:27:21.688Z,20.20
2022-09-01T19:29:23.017Z,20.20
2022-09-01T19:31:24.399Z,20.20
2022-09-01T19:33:25.961Z,20.19
2022-09-01T19:35:27.539Z,20.19
2022-09-01T19:37:28.895Z,20.18
2022-09-01T19:39:30.224Z,20.18
2022-09-01T19:41:33.035Z,20.18
2022-09-01T19:43:36.379Z,20.17
2022-09-01T19:45:37.962Z,20.16
2022-09-01T19:47:39.293Z,20.16
2022-09-01T19:49:40.687Z,20.15
2022-09-01T19:51:42.127Z,20.15
2022-09-01T19:53:43.671Z,20.16
2022-09-01T19:55:44.995Z,20.15
2022-09-01T19:57:46.443Z,20.15
2022-09-01T19:59:47.804Z,20.14
2022-09-01T20:01:49.294Z,20.15
2022-09-01T20:03:50.685Z,20.14
2022-09-01T20:05:52.006Z,20.13
2022-09-01T20:07:54.001Z,20.13
2022-09-01T20:09:55.315Z,20.12
2022-09-01T20:11:56.662Z,20.12
2022-09-01T20:13:57.975Z,20.11
2022-09-01T20:16:00.465Z,20.11
2022-09-01T20:18:02.401Z,20.11
2022-09-01T20:20:03.731Z,20.10
2022-09-01T20:22:05.047Z,20.10
2022-09-01T20:24:06.380Z,20.10
2022-09-01T20:26:07.699Z,20.10
2022-09-01T20:28:09.230Z,20.10
2022-09-01T20:30:12.232Z,20.08
2022-09-01T20:32:13.558Z,20.07
2022-09-01T20:34:15.180Z,20.08
2022-09-01T20:36:16.506Z,20.08
2022-09-01T20:38:38.599Z,20.08
2022-09-01T20:40:43.639Z,20.07
2022-09-01T20:42:45.174Z,20.07
2022-09-01T20:44:46.500Z,20.07
2022-09-01T20:46:47.837Z,20.07
2022-09-01T20:48:49.163Z,20.06
2022-09-01T20:50:50.502Z,20.04
2022-09-01T20:52:51.819Z,20.04
2022-09-01T20:54:53.401Z,20.04
2022-09-01T20:56:54.747Z,20.04
2022-09-01T20:58:56.068Z,20.04
2022-09-01T21:00:57.522Z,20.04
2022-09-01T21:02:58.938Z,20.03
2022-09-01T21:05:00.374Z,20.03
2022-09-01T21:07:01.753Z,20.02
2022-09-01T21:09:03.115Z,20.02
2022-09-01T21:11:04.443Z,20.03
2022-09-01T21:13:05.764Z,20.02
2022-09-01T21:15:07.227Z,20.01
2022-09-01T21:17:08.571Z,20.08
2022-09-01T21:19:10.022Z,20.80
2022-09-01T21:21:11.430Z,21.29
2022-09-01T21:23:16.138Z,21.39
2022-09-01T21:25:17.450Z,21.86
2022-09-01T21:27:18.816Z,22.09
2022-09-01T21:29:20.175Z,22.23
2022-09-01T21:31:21.630Z,21.96
2022-09-01T21:33:23.199Z,21.96
2022-09-01T21:35:24.698Z,21.98
2022-09-01T21:37:26.056Z,21.94
2022-09-01T21:39:27.471Z,22.04
2022-09-01T21:41:28.835Z,22.19
2022-09-01T21:43:30.216Z,22.09
2022-09-01T21:45:33.876Z,22.13
2022-09-01T21:47:35.249Z,22.01
2022-09-01T21:49:36.569Z,21.91
2022-09-01T21:51:37.928Z,21.95
2022-09-01T21:53:39.275Z,21.96
2022-09-01T21:55:42.847Z,22.06
2022-09-01T21:57:45.920Z,22.06
2022-09-01T21:59:47.239Z,22.10
2022-09-01T22:01:48.677Z,22.11
2022-09-01T22:03:50.093Z,22.08
2022-09-01T22:05:51.534Z,22.05
2022-09-01T22:07:52.957Z,22.03
2022-09-01T22:09:54.366Z,22.09
2022-09-01T22:11:55.698Z,22.00
2022-09-01T22:13:57.019Z,21.97
2022-09-01T22:15:58.396Z,21.97
2022-09-01T22:17:59.750Z,21.19
2022-09-01T22:20:01.073Z,22.02
2022-09-01T22:22:03.161Z,21.98
2022-09-01T22:24:06.549Z,21.62
2022-09-01T22:26:09.650Z,21.88
2022-09-01T22:28:13.953Z,21.94
2022-09-01T22:30:15.525Z,22.14
2022-09-01T22:32:16.831Z,22.08
2022-09-01T22:34:18.207Z,22.05
2022-09-01T22:36:19.774Z,22.06
2022-09-01T22:38:21.324Z,22.08
2022-09-01T22:40:22.702Z,22.46
2022-09-01T22:42:24.847Z,22.41
2022-09-01T22:44:26.156Z,22.24
2022-09-01T22:46:27.503Z,22.32
2022-09-01T22:48:29.059Z,22.32
2022-09-01T22:50:30.379Z,22.34
2022-09-01T22:52:31.735Z,22.00
2022-09-01T22:54:33.139Z,21.76
2022-09-01T22:56:35.143Z,21.93
2022-09-01T22:58:36.499Z,21.95
2022-09-01T23:00:37.859Z,21.96
2022-09-01T23:02:39.263Z,22.17
2022-09-01T23:04:42.367Z,22.19
2022-09-01T23:06:44.388Z,22.19
2022-09-01T23:08:45.783Z,22.17
2022-09-01T23:10:47.171Z,22.14
2022-09-01T23:12:48.567Z,22.17
2022-09-01T23:14:49.886Z,22.16
2022-09-01T23:16:51.991Z,22.17
2022-09-01T23:18:53.449Z,22.19
2022-09-01T23:20:54.800Z,22.19
2022-09-01T23:22:56.147Z,22.22
2022-09-01T23:24:57.507Z,22.27
2022-09-01T23:26:58.858Z,21.84
2022-09-01T23:29:00.175Z,21.81
2022-09-01T23:31:01.878Z,21.85
2022-09-01T23:33:03.241Z,21.72
2022-09-01T23:35:04.690Z,21.65
2022-09-01T23:37:06.020Z,21.58
2022-09-01T23:39:07.355Z,21.53
2022-09-01T23:41:08.723Z,21.49
2022-09-01T23:43:10.050Z,21.47
2022-09-01T23:45:11.403Z,21.44
2022-09-01T23:47:12.803Z,21.40
2022-09-01T23:49:14.220Z,21.38
2022-09-01T23:51:15.536Z,21.38
2022-09-01T23:53:16.892Z,21.37
2022-09-01T23:55:18.471Z,21.33
2022-09-01T23:57:20.610Z,21.32
2022-09-01T23:59:27.606Z,21.31
